7 days ago
罗盘
风向 的 风向 的 风向 到 风向 280° Aurillac Airport 15/33
风: 6 千吨, 2 beaufort
乌云 & 能见度
METAR LFLW 150430Z AUTO 28006KT 240V330 3400 BR ////// 14/13 Q1022

METAR定义 | 嵌入

24小时趋势

航班类别VFRLIFR
温度1 °C0 °C
风速1 千吨0 千吨
风向001°000°
能见度1 公里0 米
昆士兰州50

更多历史数据

下载我们的安卓应用程序

从你的主屏幕上轻松地访问你的航空天气。
只需一次付费,您就可以获得无广告的体验。

您会帮助我们保持Metar-Taf.com正常运行吗?
您的贡献有助于网站的进一步开发并支付费用。

没有更多广告

您是捐款5美元还是更多?然后,我们将永远不会再向您展示广告,这是我们永恒的感谢!
捐赠前先登录

METAR Aurillac Airport

Aurillac Airport是Aurillac,法国中的中型机场。 机场有{a,plural,=1{一条跑道} other{#跑道}}: 15/33 (1.700 米)

该报告是针对2021年7月15日 06:30, 当地时间上的Aurillac Airport所做的。

机场观察

风来自西 (280°)方向,速度为6 千吨。 风向在西南西 (240°)和北北西 (330°)之间变化。

可见度为3,4 公里。

有。 没有观察到天花板。

当前天气为薄雾。 温度和风寒是14 °C。 露点为13 °C,相对湿度为94%。 海平面上的气压为1022 压力 (QNH)。

白天

今天,太阳从07:38升起,在19:46降落。 这适用于Aurillac Airport,世界夏令时可能有所不同。 当地时间与世界标准时间之间的时差为+2 小时。 夏令时目前正在进行中。

您是否要在网站上Aurillac Airport飞行的天气? 阅读更多   自由!